This is the latest recevied weather packets stored in our database for station/object KF6RAL-6. If no packets are shown the sender has not sent any weather packets the latest 10 day(s).
| Time | Temp. | Humidity | Pressure | Rain* | Wind** | Luminosity | Snow |
|---|---|---|---|---|---|---|---|
| 1777884312 | 16.11° C | 37% | 1006.8 hPa | 0 mm | - | - | - |
| 1777883891 | 16.11° C | 40% | 1006.4 hPa | 0 mm | - | - | - |
| 1777883506 | 18.33° C | 29% | 1007 hPa | 0 mm | - | - | - |
| 1777883470 | 18.33° C | 29% | 1007 hPa | 0 mm | - | - | - |
| 1777883049 | 17.78° C | 29% | 1007.1 hPa | 0 mm | - | - | - |
| 1777882628 | 16.67° C | 37% | 1006.6 hPa | 0 mm | - | - | - |
| 1777882207 | 16.11° C | 37% | 1007 hPa | 0 mm | - | - | - |
| 1777881786 | 16.11° C | 38% | 1007 hPa | 0 mm | - | - | - |
| 1777881365 | 16.11° C | 33% | 1006.9 hPa | 0 mm | - | - | - |
| 1777880944 | 16.67° C | 32% | 1006.9 hPa | 0 mm | - | - | - |
| 1777880523 | 16.67° C | 32% | 1006.9 hPa | 0 mm | - | - | - |
| 1777880102 | 16.67° C | 33% | 1006.9 hPa | 0 mm | - | - | - |
| 1777879681 | 16.11° C | 33% | 1007.3 hPa | 0 mm | - | - | - |
| 1777879260 | 16.11° C | 37% | 1007.2 hPa | 0 mm | - | - | - |
| 1777878839 | 16.11° C | 34% | 1007.2 hPa | 0 mm | - | - | - |
| 1777878418 | 16.11° C | 37% | 1007.1 hPa | 0 mm | - | - | - |
| 1777877997 | 16.11° C | 34% | 1007.2 hPa | 0 mm | - | - | - |
| 1777877576 | 15.56° C | 46% | 1007.1 hPa | 0 mm | - | - | - |
| 1777877155 | 15.56° C | 43% | 1006.6 hPa | 0 mm | - | - | - |
| 1777876734 | 15.56° C | 44% | 1006.5 hPa | 0 mm | - | - | - |
| 1777876313 | 15.56° C | 38% | 1006.7 hPa | 0 mm | - | - | - |
| 1777875892 | 15.56° C | 41% | 1006.7 hPa | 0 mm | - | - | - |
| 1777875470 | 16.11° C | 46% | 1007.5 hPa | 0 mm | - | - | - |
| 1777875049 | 16.67° C | 47% | 1007.4 hPa | 0 mm | - | - | - |
| 1777874630 | 16.67° C | 37% | 1007.4 hPa | 0 mm | - | - | - |
* Rain latest hour (hover to see other rain measurements)
** Current wind speed in m/s (hover to see current wind gust speed)